Delta, CO

8:13 AM MDT on August 29, 2014 (GMT -0600)
Montrose Regional | Change Station
CLOSE
Current Station
Airport
Location: Montrose,
Elevation: 5758 ft
Nearby Weather Stations

Elev 5758 ft 38.51 °N, 107.90 °W | Updated 20 minutes ago

Scattered Clouds
Scattered Clouds
56 °F
Feels Like 56 °F
N
8
Wind Variable Wind from SE

Today
High -- | Low -- °F
--% Chance of Precip.
Yesterday
High -- | Low -- °F
Precip. -- in
6:38 AM 7:46 PM
Waxing Crescent, 14% visible
Pressure 30.09 in
Visibility 10.0 miles
Clouds Scattered Clouds 9000 ft
Dew Point 45 °F
Humidity 67%
Rainfall 0.00 in
Snow Depth Not available.
UV 1 out of 12
Pollen 9.70 out of 12
Air Quality Not available.
Flu Activity Not available.
METAR KMTJ 291353Z AUTO 14007KT 10SM SCT090 13/07 A3026 RMK AO2 SLP187 T01330072

More Conditions Fewer Conditions

Pressure 30.09 in
Visibility 10.0 miles
Clouds Scattered Clouds 9000 ft
Dew Point 45 °F
Humidity 67%
Rainfall 0.00 in
Snow Depth Not available.
UV 1 out of 12
Pollen 9.70 out of 12
Air Quality Not available.
Flu Activity Not available.
METAR KMTJ 291353Z AUTO 14007KT 10SM SCT090 13/07 A3026 RMK AO2 SLP187 T01330072

More Conditions Fewer Conditions

10-Day Weather Forecast

Almanac

Astronomy

Aug. 29, 2014 Rise Set
Actual Time 6:38 AM MDT 7:46 PM MDT
Civil Twilight 6:11 AM MDT 8:14 PM MDT
Nautical Twilight 5:38 AM MDT 8:46 PM MDT
Astronomical Twilight 5:04 AM MDT 9:20 PM MDT
Moon 10:28 AM MDT 9:49 PM MDT
Length of Visible Light 14h 02m
Length of Day
13h 08m
Tomorrow will be 2m 24s shorter.
Waxing Crescent, 14% of the Moon is Illuminated
Today
Waxing Crescent
Sep 2
First Quarter
Sep 8
Full
Sep 15
Last Quarter
Sep 24
New

Today's Extremes

State Highs State Lows

Community

WunderPhotos

Upload Photos

1,748,240 photos uploaded!

Nearby

Snow Depth

Station Depth Elevation
Mesa Lakes 0 in 10000 ft
Park Reservoir 0 in 9960 ft
Columbine Pass 1 in 9400 ft
Overland Reservoir 0 in 9880 ft
McClure Pass 2 in 9500 ft

Earthquake Activity

City Distance Mag. Time & Date
No recent earthquake activity has been reported nearby.
Minimum magnitude displayed is 2.5.

Coastal Water Temperatures

Place Temperature
No Stations Reporting

Nearby Weather Stations